Azalea, Oregon
Current Conditions -  °F | °C
As of 3:56 PM on Friday 24 Oct 2014 (Local Time) from KSXT Reporting Station
Few Clouds Few Clouds  
Wind Chill: 54°   Ceiling: Unl
Heat Index: 54°   Visibility: 10mi
Dew Point: 49°   Wind: 9mph
Humidity: 83%   Direction: 190°S
Pressure: 29.82"   Gusts: NA
Location:  42.8°N, 123.26°W
Report Text: KSXT 242256Z AUTO 19008KT 150V210 10SM FEW020 12/09 A2982 RMK AO2 SLP083 T01220094
Loading
Personal Weather Stations






























Interactive Weather Map New forecast layout! Learn more

10-Day Weather Forecast

Advertisements
Track Severe Weather on mobile